createdAt,value
2019-01-15T00:00:01.535Z,13.80
2019-01-15T00:00:36.923Z,15.25
2019-01-15T00:01:12.657Z,9.23
2019-01-15T00:01:48.396Z,5.50
2019-01-15T00:02:24.062Z,15.63
2019-01-15T00:02:59.923Z,11.20
2019-01-15T00:03:36.015Z,12.25
2019-01-15T00:04:11.658Z,21.05
2019-01-15T00:04:47.235Z,7.53
2019-01-15T00:05:23.202Z,14.07
2019-01-15T00:05:58.735Z,13.75
2019-01-15T00:06:34.603Z,10.00
2019-01-15T00:07:10.225Z,14.25
2019-01-15T00:07:45.940Z,16.87
2019-01-15T00:08:21.504Z,12.70
2019-01-15T00:08:57.185Z,15.32
2019-01-15T00:09:32.699Z,9.13
2019-01-15T00:10:09.016Z,13.58
2019-01-15T00:10:44.738Z,6.03
2019-01-15T00:11:20.416Z,12.37
2019-01-15T00:11:56.035Z,13.18
2019-01-15T00:12:31.682Z,10.75
2019-01-15T00:13:07.301Z,8.30
2019-01-15T00:13:42.834Z,11.15
2019-01-15T00:14:18.838Z,9.40
2019-01-15T00:14:54.713Z,8.20
2019-01-15T00:15:30.611Z,9.28
2019-01-15T00:16:06.656Z,11.08
2019-01-15T00:16:42.270Z,11.73
2019-01-15T00:17:17.976Z,10.95
2019-01-15T00:17:53.558Z,9.85
2019-01-15T00:18:29.250Z,11.65
2019-01-15T00:19:04.777Z,11.38
2019-01-15T00:19:40.596Z,11.30
2019-01-15T00:20:16.475Z,9.05
2019-01-15T00:20:52.316Z,11.18
2019-01-15T00:21:28.073Z,12.82
2019-01-15T00:22:03.758Z,13.10
2019-01-15T00:22:39.303Z,10.82
2019-01-15T00:23:14.866Z,8.75
2019-01-15T00:23:50.646Z,13.28
2019-01-15T00:24:26.373Z,13.20
2019-01-15T00:25:02.003Z,10.60
2019-01-15T00:25:37.696Z,14.58
2019-01-15T00:26:13.435Z,7.95
2019-01-15T00:26:49.008Z,11.30
2019-01-15T00:27:24.584Z,12.30
2019-01-15T00:28:00.434Z,9.13
2019-01-15T00:28:36.249Z,9.78
2019-01-15T00:29:12.015Z,12.93
2019-01-15T00:29:47.525Z,6.60
2019-01-15T00:30:23.189Z,7.33
2019-01-15T00:30:58.729Z,11.50
2019-01-15T00:31:34.398Z,11.18
2019-01-15T00:32:10.059Z,10.72
2019-01-15T00:32:45.728Z,8.70
2019-01-15T00:33:21.361Z,9.18
2019-01-15T00:33:57.071Z,10.75
2019-01-15T00:34:32.813Z,14.98
2019-01-15T00:35:09.263Z,12.90
2019-01-15T00:35:44.963Z,15.63
2019-01-15T00:36:20.462Z,9.00
2019-01-15T00:36:56.213Z,9.28
2019-01-15T00:37:31.960Z,11.78
2019-01-15T00:38:07.673Z,13.00
2019-01-15T00:38:43.505Z,10.70
2019-01-15T00:39:19.030Z,5.92
2019-01-15T00:39:54.911Z,6.78
2019-01-15T00:40:30.616Z,8.30
2019-01-15T00:41:06.557Z,8.63
2019-01-15T00:41:42.227Z,6.25
2019-01-15T00:42:19.085Z,5.17
2019-01-15T00:42:54.905Z,8.35
2019-01-15T00:43:31.158Z,13.88
2019-01-15T00:44:06.960Z,13.05
2019-01-15T00:44:42.537Z,8.53
2019-01-15T00:45:18.357Z,6.95
2019-01-15T00:45:54.001Z,7.12
2019-01-15T00:46:29.816Z,7.92
2019-01-15T00:47:05.377Z,8.78
2019-01-15T00:47:41.198Z,12.43
2019-01-15T00:48:16.939Z,9.68
2019-01-15T00:48:52.599Z,12.03
2019-01-15T00:49:28.287Z,13.48
2019-01-15T00:50:04.048Z,10.60
2019-01-15T00:50:40.018Z,10.85
2019-01-15T00:51:15.677Z,8.88
2019-01-15T00:51:51.467Z,10.35
2019-01-15T00:52:27.007Z,9.60
2019-01-15T00:53:02.746Z,10.55
2019-01-15T00:53:38.397Z,8.13
2019-01-15T00:54:14.088Z,10.63
2019-01-15T00:54:49.898Z,11.22
2019-01-15T00:55:25.422Z,12.93
2019-01-15T00:56:01.222Z,8.93
2019-01-15T00:56:36.985Z,9.80
2019-01-15T00:57:12.747Z,13.98
2019-01-15T00:57:48.343Z,8.73
2019-01-15T00:58:24.134Z,7.08
2019-01-15T00:58:59.834Z,4.75
2019-01-15T00:59:35.467Z,8.85
2019-01-15T01:00:19.469Z,7.65
2019-01-15T01:00:55.126Z,6.40
2019-01-15T01:01:30.919Z,9.60
2019-01-15T01:02:06.911Z,11.20
2019-01-15T01:02:42.542Z,13.50
2019-01-15T01:03:18.157Z,9.43
2019-01-15T01:03:53.911Z,12.53
2019-01-15T01:04:29.570Z,10.45
2019-01-15T01:05:05.850Z,9.28
2019-01-15T01:05:41.648Z,12.23
2019-01-15T01:06:17.401Z,15.00
2019-01-15T01:06:53.242Z,9.13
2019-01-15T01:07:28.870Z,7.42
2019-01-15T01:08:04.967Z,10.03
2019-01-15T01:08:40.541Z,11.63
2019-01-15T01:09:16.464Z,14.87
2019-01-15T01:09:52.081Z,10.75
2019-01-15T01:10:27.980Z,9.35
2019-01-15T01:11:03.814Z,8.63
2019-01-15T01:11:39.542Z,10.88
2019-01-15T01:12:22.043Z,8.35
2019-01-15T01:12:52.514Z,6.30
2019-01-15T01:13:28.153Z,6.62
2019-01-15T01:14:03.910Z,7.62
2019-01-15T01:14:39.636Z,7.55
2019-01-15T01:15:16.556Z,7.47
2019-01-15T01:15:52.388Z,6.95
2019-01-15T01:16:28.331Z,8.58
2019-01-15T01:17:04.099Z,7.37
2019-01-15T01:17:39.908Z,12.58
2019-01-15T01:18:15.505Z,11.40
2019-01-15T01:18:51.263Z,11.80
2019-01-15T01:19:26.800Z,9.03
2019-01-15T01:20:02.391Z,14.23
2019-01-15T01:20:38.232Z,7.62
2019-01-15T01:21:13.753Z,4.80
2019-01-15T01:21:49.371Z,8.55
2019-01-15T01:22:24.788Z,4.92
2019-01-15T01:23:00.292Z,11.97
2019-01-15T01:23:35.738Z,7.92
2019-01-15T01:24:11.308Z,4.22
2019-01-15T01:24:46.794Z,5.37
2019-01-15T01:25:22.199Z,8.65
2019-01-15T01:25:57.559Z,12.58
2019-01-15T01:26:33.282Z,12.63
2019-01-15T01:27:09.041Z,16.57
2019-01-15T01:27:44.498Z,12.65
2019-01-15T01:28:19.875Z,8.33
2019-01-15T01:28:55.369Z,11.63
2019-01-15T01:29:30.916Z,6.40
2019-01-15T01:30:08.867Z,7.17
2019-01-15T01:30:44.302Z,12.98
2019-01-15T01:31:19.720Z,13.20
2019-01-15T01:31:55.139Z,9.80
2019-01-15T01:32:30.518Z,3.83
2019-01-15T01:33:05.926Z,7.67
2019-01-15T01:33:41.204Z,8.93
2019-01-15T01:34:16.819Z,13.20
2019-01-15T01:34:52.317Z,12.20
2019-01-15T01:35:27.835Z,16.05
2019-01-15T01:36:03.521Z,15.85
2019-01-15T01:36:39.303Z,6.75
2019-01-15T01:37:14.754Z,5.67
2019-01-15T01:37:50.198Z,13.78
2019-01-15T01:38:25.596Z,8.85
2019-01-15T01:39:01.067Z,7.72
2019-01-15T01:39:36.697Z,11.85
2019-01-15T01:40:14.847Z,8.65
2019-01-15T01:40:50.297Z,7.80
2019-01-15T01:41:25.924Z,8.83
2019-01-15T01:42:01.405Z,10.68
2019-01-15T01:42:37.014Z,7.78
2019-01-15T01:43:12.612Z,10.78
2019-01-15T01:43:48.662Z,7.65
2019-01-15T01:44:24.183Z,9.58
2019-01-15T01:44:59.651Z,9.10
2019-01-15T01:45:35.077Z,8.58
2019-01-15T01:46:10.518Z,4.50
2019-01-15T01:46:46.005Z,5.47
2019-01-15T01:47:21.472Z,8.55
2019-01-15T01:47:57.003Z,10.32
2019-01-15T01:48:32.542Z,7.75
2019-01-15T01:49:07.939Z,20.80
2019-01-15T01:49:43.289Z,13.65
2019-01-15T01:50:18.726Z,7.17
2019-01-15T01:50:54.648Z,8.70
2019-01-15T01:51:30.219Z,11.20
2019-01-15T01:52:05.926Z,8.73
2019-01-15T01:52:44.634Z,12.47
2019-01-15T01:53:20.102Z,8.43
2019-01-15T01:53:55.593Z,11.68
2019-01-15T01:54:31.204Z,9.98
2019-01-15T01:55:07.987Z,8.18
2019-01-15T01:55:43.516Z,8.83
2019-01-15T01:56:19.171Z,10.03
2019-01-15T01:56:54.627Z,16.93
2019-01-15T01:57:30.062Z,5.87
2019-01-15T01:58:05.947Z,8.85
2019-01-15T01:58:41.902Z,8.00
2019-01-15T01:59:17.448Z,4.80
2019-01-15T01:59:53.064Z,9.63
2019-01-15T02:00:28.625Z,12.63
2019-01-15T02:01:04.144Z,9.48
2019-01-15T02:01:39.615Z,9.63
2019-01-15T02:02:14.931Z,11.12
2019-01-15T02:02:50.967Z,8.10
2019-01-15T02:03:26.486Z,9.28
2019-01-15T02:04:01.818Z,10.75
2019-01-15T02:04:37.267Z,14.33
2019-01-15T02:05:12.894Z,17.75
2019-01-15T02:05:48.501Z,7.15
2019-01-15T02:06:24.955Z,10.55
2019-01-15T02:07:00.615Z,5.35
2019-01-15T02:07:36.064Z,7.05
2019-01-15T02:08:11.662Z,6.62
2019-01-15T02:08:47.302Z,5.85
2019-01-15T02:09:23.270Z,7.28
2019-01-15T02:09:58.774Z,15.63
2019-01-15T02:10:34.276Z,9.70
2019-01-15T02:11:09.888Z,4.62
2019-01-15T02:11:45.389Z,13.30
2019-01-15T02:12:20.832Z,8.38
2019-01-15T02:12:56.225Z,10.30
2019-01-15T02:13:31.935Z,11.70
2019-01-15T02:14:07.708Z,9.15
2019-01-15T02:14:43.138Z,10.25
2019-01-15T02:15:21.194Z,6.12
2019-01-15T02:15:56.671Z,12.13
2019-01-15T02:16:32.176Z,13.72
2019-01-15T02:17:07.514Z,9.53
2019-01-15T02:17:42.957Z,7.58
2019-01-15T02:18:18.496Z,6.90
2019-01-15T02:18:54.238Z,11.38
2019-01-15T02:19:29.658Z,9.38
2019-01-15T02:20:06.649Z,8.45
2019-01-15T02:20:42.030Z,15.38
2019-01-15T02:21:17.646Z,4.22
2019-01-15T02:21:53.255Z,8.00
2019-01-15T02:22:28.662Z,10.25
2019-01-15T02:23:04.102Z,6.53
2019-01-15T02:23:39.414Z,5.90
2019-01-15T02:24:15.376Z,5.95
2019-01-15T02:24:50.799Z,6.20
2019-01-15T02:25:26.310Z,11.48
2019-01-15T02:26:01.861Z,13.80
2019-01-15T02:26:37.318Z,8.35
2019-01-15T02:27:13.581Z,4.85
2019-01-15T02:27:51.305Z,11.68
2019-01-15T02:28:26.874Z,7.55
2019-01-15T02:29:02.369Z,8.98
2019-01-15T02:29:38.005Z,7.03
2019-01-15T02:30:16.059Z,8.28
2019-01-15T02:30:51.641Z,5.80
2019-01-15T02:31:27.186Z,7.92
2019-01-15T02:32:02.642Z,9.33
2019-01-15T02:32:38.100Z,8.20
2019-01-15T02:33:13.591Z,9.20
2019-01-15T02:33:48.920Z,11.45
2019-01-15T02:34:24.417Z,9.20
2019-01-15T02:35:00.014Z,7.50
2019-01-15T02:35:35.501Z,10.98
2019-01-15T02:36:11.013Z,17.65
2019-01-15T02:36:46.385Z,6.95
2019-01-15T02:37:22.046Z,7.08
2019-01-15T02:37:57.410Z,5.87
2019-01-15T02:38:32.980Z,7.80
2019-01-15T02:39:09.352Z,10.18
2019-01-15T02:39:45.029Z,10.35
2019-01-15T02:40:20.482Z,14.93
2019-01-15T02:40:55.917Z,9.55
2019-01-15T02:41:31.575Z,7.70
2019-01-15T02:42:06.911Z,4.95
2019-01-15T02:42:46.654Z,6.70
2019-01-15T02:43:19.484Z,8.95
2019-01-15T02:43:54.994Z,8.55
2019-01-15T02:44:30.640Z,3.17
2019-01-15T02:45:07.240Z,8.25
2019-01-15T02:45:42.761Z,8.25
2019-01-15T02:46:18.562Z,7.87
2019-01-15T02:46:54.057Z,7.15
2019-01-15T02:47:29.670Z,11.33
2019-01-15T02:48:05.260Z,9.48
2019-01-15T02:48:40.711Z,11.93
2019-01-15T02:49:16.153Z,6.92
2019-01-15T02:49:51.691Z,9.48
2019-01-15T02:50:27.014Z,11.10
2019-01-15T02:51:02.545Z,9.05
2019-01-15T02:51:38.250Z,6.30
2019-01-15T02:52:13.602Z,4.30
2019-01-15T02:52:49.355Z,6.17
2019-01-15T02:53:24.931Z,9.00
2019-01-15T02:54:00.490Z,11.15
2019-01-15T02:54:36.040Z,11.33
2019-01-15T02:55:11.851Z,9.08
2019-01-15T02:55:47.317Z,19.98
2019-01-15T02:56:22.739Z,9.78
2019-01-15T02:56:58.141Z,9.78
2019-01-15T02:57:33.594Z,11.68
2019-01-15T02:58:09.135Z,13.40
2019-01-15T02:58:44.560Z,14.55
2019-01-15T02:59:19.884Z,9.20
2019-01-15T02:59:55.322Z,9.40
2019-01-15T03:00:30.869Z,5.53
2019-01-15T03:01:06.513Z,9.65
2019-01-15T03:01:41.964Z,9.98
2019-01-15T03:02:17.454Z,6.47
2019-01-15T03:02:52.949Z,6.45
2019-01-15T03:03:28.537Z,17.10
2019-01-15T03:04:04.133Z,11.18
2019-01-15T03:04:39.612Z,12.43
2019-01-15T03:05:15.819Z,14.43
2019-01-15T03:05:51.347Z,15.05
2019-01-15T03:06:27.006Z,13.10
2019-01-15T03:07:02.644Z,9.90
2019-01-15T03:07:38.163Z,7.15
2019-01-15T03:08:13.510Z,10.68
2019-01-15T03:08:48.937Z,7.42
2019-01-15T03:09:24.435Z,7.92
2019-01-15T03:10:00.197Z,7.78
2019-01-15T03:10:35.855Z,5.53
2019-01-15T03:11:11.458Z,6.75
2019-01-15T03:11:47.437Z,10.90
2019-01-15T03:12:23.052Z,9.90
2019-01-15T03:12:58.696Z,6.85
2019-01-15T03:13:34.034Z,13.28
2019-01-15T03:14:09.730Z,5.58
2019-01-15T03:14:45.275Z,9.45
2019-01-15T03:15:21.237Z,10.95
2019-01-15T03:15:56.741Z,6.87
2019-01-15T03:16:32.215Z,13.50
2019-01-15T03:17:07.904Z,5.97
2019-01-15T03:17:43.574Z,11.50
2019-01-15T03:18:19.102Z,11.08
2019-01-15T03:18:54.725Z,10.78
2019-01-15T03:19:30.320Z,8.65
2019-01-15T03:20:07.202Z,9.53
2019-01-15T03:20:42.692Z,10.43
2019-01-15T03:21:18.080Z,9.43
2019-01-15T03:21:53.537Z,10.23
2019-01-15T03:22:28.973Z,10.82
2019-01-15T03:23:04.595Z,6.33
2019-01-15T03:23:40.250Z,6.10
2019-01-15T03:24:15.684Z,5.20
2019-01-15T03:24:51.260Z,16.77
2019-01-15T03:25:26.709Z,10.82
2019-01-15T03:26:02.274Z,7.70
2019-01-15T03:26:37.783Z,11.28
2019-01-15T03:27:13.231Z,9.40
2019-01-15T03:27:48.663Z,13.48
2019-01-15T03:28:23.984Z,11.12
2019-01-15T03:28:59.814Z,8.53
2019-01-15T03:29:35.390Z,13.62
2019-01-15T03:30:14.033Z,10.48
2019-01-15T03:30:49.441Z,9.50
2019-01-15T03:31:24.802Z,10.88
2019-01-15T03:32:00.267Z,11.22
2019-01-15T03:32:35.677Z,15.25
2019-01-15T03:33:11.220Z,7.35
2019-01-15T03:33:46.741Z,10.43
2019-01-15T03:34:22.268Z,13.38
2019-01-15T03:34:58.199Z,11.48
2019-01-15T03:35:33.734Z,12.90
2019-01-15T03:36:09.365Z,4.85
2019-01-15T03:36:44.915Z,9.95
2019-01-15T03:37:20.334Z,8.40
2019-01-15T03:37:55.905Z,10.23
2019-01-15T03:38:31.384Z,6.80
2019-01-15T03:39:09.646Z,8.93
2019-01-15T03:39:45.154Z,12.60
2019-01-15T03:40:22.698Z,12.55
2019-01-15T03:40:58.055Z,7.35
2019-01-15T03:41:33.589Z,12.15
2019-01-15T03:42:09.115Z,10.65
2019-01-15T03:42:44.426Z,6.97
2019-01-15T03:43:19.762Z,10.25
2019-01-15T03:43:55.113Z,5.83
2019-01-15T03:44:30.430Z,23.98
2019-01-15T03:45:06.733Z,17.45
2019-01-15T03:45:42.122Z,13.85
2019-01-15T03:46:17.550Z,8.48
2019-01-15T03:46:53.170Z,8.90
2019-01-15T03:47:28.603Z,5.80
2019-01-15T03:48:04.253Z,17.77
2019-01-15T03:48:39.685Z,10.95
2019-01-15T03:49:15.235Z,11.90
2019-01-15T03:49:50.870Z,8.20
2019-01-15T03:50:26.442Z,14.85
2019-01-15T03:51:02.004Z,5.72
2019-01-15T03:51:37.540Z,7.83
2019-01-15T03:52:13.064Z,12.60
2019-01-15T03:52:48.674Z,13.70
2019-01-15T03:53:23.984Z,12.75
2019-01-15T03:53:59.565Z,11.05
2019-01-15T03:54:34.908Z,11.95
2019-01-15T03:55:10.800Z,10.00
2019-01-15T03:55:46.254Z,8.05
2019-01-15T03:56:21.582Z,12.88
2019-01-15T03:56:57.065Z,17.45
2019-01-15T03:57:32.459Z,11.43
2019-01-15T03:58:08.009Z,9.65
2019-01-15T03:58:43.544Z,11.12
2019-01-15T03:59:18.934Z,14.05
2019-01-15T03:59:54.379Z,9.90
2019-01-15T04:00:30.209Z,9.90
2019-01-15T04:01:05.713Z,16.77
2019-01-15T04:01:41.340Z,7.80
2019-01-15T04:02:16.823Z,9.10
2019-01-15T04:02:52.374Z,8.35
2019-01-15T04:03:28.136Z,13.45
2019-01-15T04:04:03.637Z,13.93
2019-01-15T04:04:39.274Z,7.05
2019-01-15T04:05:16.317Z,10.58
2019-01-15T04:05:51.769Z,11.83
2019-01-15T04:06:27.094Z,5.67
2019-01-15T04:07:02.631Z,15.50
2019-01-15T04:07:38.844Z,12.25
2019-01-15T04:08:14.469Z,14.45
2019-01-15T04:08:49.970Z,10.63
2019-01-15T04:09:25.647Z,12.10
2019-01-15T04:10:01.198Z,10.03
2019-01-15T04:10:36.628Z,16.77
2019-01-15T04:11:11.947Z,19.27
2019-01-15T04:11:47.433Z,19.45
2019-01-15T04:12:23.201Z,17.30
2019-01-15T04:12:58.772Z,11.55
2019-01-15T04:13:34.381Z,12.95
2019-01-15T04:14:10.133Z,12.53
2019-01-15T04:14:45.690Z,10.00
2019-01-15T04:15:21.092Z,8.95
2019-01-15T04:15:56.640Z,14.95
2019-01-15T04:16:32.182Z,12.58
2019-01-15T04:17:07.486Z,12.30
2019-01-15T04:17:43.242Z,10.72
2019-01-15T04:18:18.778Z,10.75
2019-01-15T04:18:54.208Z,13.58
2019-01-15T04:19:29.602Z,18.95
2019-01-15T04:20:06.490Z,13.65
2019-01-15T04:20:41.950Z,12.60
2019-01-15T04:21:17.281Z,13.72
2019-01-15T04:21:52.794Z,10.70
2019-01-15T04:22:28.239Z,12.25
2019-01-15T04:23:03.666Z,17.67
2019-01-15T04:23:39.088Z,11.30
2019-01-15T04:24:14.487Z,11.63
2019-01-15T04:24:49.955Z,13.90
2019-01-15T04:25:25.513Z,9.80
2019-01-15T04:26:01.311Z,11.15
2019-01-15T04:26:36.888Z,8.93
2019-01-15T04:27:12.562Z,10.05
2019-01-15T04:27:48.118Z,12.18
2019-01-15T04:28:23.442Z,6.80
2019-01-15T04:28:58.995Z,13.85
2019-01-15T04:29:34.630Z,12.35
2019-01-15T04:30:13.335Z,11.70
2019-01-15T04:30:48.960Z,14.83
2019-01-15T04:31:24.501Z,13.32
2019-01-15T04:32:00.027Z,12.82
2019-01-15T04:32:35.447Z,8.38
2019-01-15T04:33:10.898Z,7.60
2019-01-15T04:33:46.284Z,8.88
2019-01-15T04:34:21.858Z,10.18
2019-01-15T04:34:57.381Z,8.10
2019-01-15T04:35:32.694Z,10.20
2019-01-15T04:36:08.133Z,8.03
2019-01-15T04:36:43.687Z,14.40
2019-01-15T04:37:19.102Z,8.78
2019-01-15T04:37:54.547Z,11.00
2019-01-15T04:38:29.987Z,10.95
2019-01-15T04:39:07.820Z,14.75
2019-01-15T04:39:43.212Z,11.88
2019-01-15T04:40:22.865Z,10.40
2019-01-15T04:40:58.509Z,16.67
2019-01-15T04:41:34.251Z,13.15
2019-01-15T04:42:09.635Z,7.45
2019-01-15T04:42:45.163Z,14.35
2019-01-15T04:43:20.698Z,10.75
2019-01-15T04:43:56.213Z,8.58
2019-01-15T04:44:31.642Z,13.35
2019-01-15T04:45:08.323Z,12.55
2019-01-15T04:45:43.722Z,15.50
2019-01-15T04:46:19.267Z,15.65
2019-01-15T04:46:54.807Z,16.97
2019-01-15T04:47:30.328Z,12.60
2019-01-15T04:48:05.657Z,9.75
2019-01-15T04:48:41.270Z,10.88
2019-01-15T04:49:16.847Z,15.63
2019-01-15T04:49:52.274Z,8.85
2019-01-15T04:50:27.864Z,7.50
2019-01-15T04:51:03.408Z,8.85
2019-01-15T04:51:38.873Z,10.72
2019-01-15T04:52:14.451Z,9.58
2019-01-15T04:53:05.258Z,12.30
2019-01-15T04:53:40.842Z,9.58
2019-01-15T04:54:16.228Z,10.70
2019-01-15T04:54:51.941Z,9.43
2019-01-15T04:55:27.433Z,10.23
2019-01-15T04:56:02.993Z,7.05
2019-01-15T04:56:38.869Z,12.93
2019-01-15T04:57:14.389Z,17.67
2019-01-15T04:57:49.978Z,6.45
2019-01-15T04:58:25.524Z,10.80
2019-01-15T04:59:01.440Z,11.88
2019-01-15T04:59:37.381Z,10.38
2019-01-15T05:00:15.858Z,8.58
2019-01-15T05:00:51.519Z,13.65
2019-01-15T05:01:26.899Z,12.73
2019-01-15T05:02:02.617Z,10.82
2019-01-15T05:02:38.793Z,12.15
2019-01-15T05:03:14.255Z,7.30
2019-01-15T05:03:49.828Z,10.78
2019-01-15T05:04:25.330Z,13.20
2019-01-15T05:05:01.244Z,12.82
2019-01-15T05:05:36.695Z,14.43
2019-01-15T05:06:12.195Z,5.37
2019-01-15T05:06:47.889Z,12.25
2019-01-15T05:07:23.299Z,8.53
2019-01-15T05:07:58.708Z,6.53
2019-01-15T05:08:34.326Z,15.48
2019-01-15T05:09:10.261Z,16.05
2019-01-15T05:09:45.741Z,11.50
2019-01-15T05:10:21.240Z,10.55
2019-01-15T05:10:56.731Z,11.53
2019-01-15T05:11:32.346Z,19.75
2019-01-15T05:12:07.809Z,14.00
2019-01-15T05:12:43.280Z,12.47
2019-01-15T05:13:18.719Z,9.70
2019-01-15T05:13:54.659Z,10.75
2019-01-15T05:14:30.199Z,10.45
2019-01-15T05:15:07.268Z,12.95
2019-01-15T05:15:43.093Z,9.75
2019-01-15T05:16:18.691Z,8.53
2019-01-15T05:16:54.238Z,9.50
2019-01-15T05:17:29.773Z,13.45
2019-01-15T05:18:05.459Z,13.30
2019-01-15T05:18:41.011Z,16.10
2019-01-15T05:19:16.602Z,12.30
2019-01-15T05:19:52.106Z,14.78
2019-01-15T05:20:27.917Z,13.90
2019-01-15T05:21:03.311Z,19.48
2019-01-15T05:21:38.624Z,10.93
2019-01-15T05:22:14.140Z,10.88
2019-01-15T05:22:49.661Z,9.35
2019-01-15T05:23:25.129Z,8.25
2019-01-15T05:24:00.562Z,13.15
2019-01-15T05:24:35.988Z,19.25
2019-01-15T05:25:14.066Z,13.83
2019-01-15T05:25:49.506Z,17.40
2019-01-15T05:26:25.005Z,11.25
2019-01-15T05:27:00.567Z,14.43
2019-01-15T05:27:35.894Z,10.23
2019-01-15T05:28:11.434Z,20.32
2019-01-15T05:28:46.874Z,16.60
2019-01-15T05:29:22.317Z,17.48
2019-01-15T05:29:57.734Z,14.03
2019-01-15T05:30:33.175Z,19.27
2019-01-15T05:31:08.695Z,18.20
2019-01-15T05:31:44.237Z,22.75
2019-01-15T05:32:19.698Z,22.52
2019-01-15T05:32:55.270Z,23.35
2019-01-15T05:33:30.796Z,22.52
2019-01-15T05:34:06.264Z,20.08
2019-01-15T05:34:41.787Z,21.70
2019-01-15T05:35:17.308Z,16.65
2019-01-15T05:35:52.753Z,17.95
2019-01-15T05:36:28.310Z,13.43
2019-01-15T05:37:03.626Z,24.98
2019-01-15T05:37:39.031Z,16.48
2019-01-15T05:38:14.604Z,8.68
2019-01-15T05:38:50.003Z,14.25
2019-01-15T05:39:25.482Z,15.08
2019-01-15T05:40:00.952Z,12.98
2019-01-15T05:40:36.502Z,13.22
2019-01-15T05:41:12.074Z,18.35
2019-01-15T05:41:47.501Z,16.42
2019-01-15T05:42:22.907Z,13.75
2019-01-15T05:42:58.619Z,14.20
2019-01-15T05:43:35.870Z,17.40
2019-01-15T05:44:11.331Z,15.03
2019-01-15T05:44:46.718Z,14.05
2019-01-15T05:45:34.378Z,19.70
2019-01-15T05:46:09.861Z,15.28
2019-01-15T05:46:45.485Z,11.93
2019-01-15T05:47:22.926Z,14.50
2019-01-15T05:48:01.370Z,18.15
2019-01-15T05:48:37.839Z,15.25
2019-01-15T05:49:13.229Z,8.63
2019-01-15T05:49:48.856Z,20.25
2019-01-15T05:50:32.239Z,9.35
2019-01-15T05:51:33.564Z,16.75
2019-01-15T05:52:08.966Z,16.80
2019-01-15T05:52:44.466Z,14.10
2019-01-15T05:53:20.018Z,12.37
2019-01-15T05:53:55.449Z,16.87
2019-01-15T05:54:30.747Z,11.08
2019-01-15T05:55:06.634Z,15.43
2019-01-15T05:55:41.928Z,13.65
2019-01-15T05:56:17.410Z,8.98
2019-01-15T05:56:53.018Z,15.28
2019-01-15T05:57:28.539Z,10.60
2019-01-15T05:58:03.980Z,12.60
2019-01-15T05:58:39.540Z,11.57
2019-01-15T05:59:14.959Z,17.52
2019-01-15T05:59:50.668Z,12.35
2019-01-15T06:00:26.087Z,15.70
2019-01-15T06:01:01.763Z,13.32
2019-01-15T06:01:37.187Z,14.07
2019-01-15T06:02:12.730Z,12.93
2019-01-15T06:02:48.160Z,19.07
2019-01-15T06:03:23.678Z,16.70
2019-01-15T06:03:58.983Z,17.20
2019-01-15T06:04:34.549Z,14.13
2019-01-15T06:05:10.654Z,15.85
2019-01-15T06:05:46.178Z,18.15
2019-01-15T06:06:21.680Z,15.25
2019-01-15T06:06:57.548Z,22.00
2019-01-15T06:07:33.744Z,11.18
2019-01-15T06:08:09.469Z,12.78
2019-01-15T06:08:44.999Z,17.42
2019-01-15T06:09:20.397Z,10.72
2019-01-15T06:09:56.093Z,17.80
2019-01-15T06:10:31.691Z,16.25
2019-01-15T06:11:07.212Z,20.92
2019-01-15T06:11:42.853Z,15.38
2019-01-15T06:12:18.281Z,14.47
2019-01-15T06:12:53.602Z,12.58
2019-01-15T06:13:29.188Z,17.77
2019-01-15T06:14:04.882Z,17.07
2019-01-15T06:14:40.430Z,17.82
2019-01-15T06:15:16.045Z,17.37
2019-01-15T06:15:51.494Z,18.77
2019-01-15T06:16:27.545Z,12.25
2019-01-15T06:17:02.948Z,14.35
2019-01-15T06:17:38.311Z,19.12
2019-01-15T06:18:13.809Z,18.65
2019-01-15T06:18:49.269Z,16.37
2019-01-15T06:19:24.682Z,18.02
2019-01-15T06:20:00.641Z,29.63
2019-01-15T06:20:36.043Z,20.43
2019-01-15T06:21:11.779Z,30.72
2019-01-15T06:21:47.327Z,16.93
2019-01-15T06:22:22.871Z,14.93
2019-01-15T06:22:58.529Z,9.70
2019-01-15T06:23:33.920Z,14.90
2019-01-15T06:24:09.150Z,19.25
2019-01-15T06:24:44.330Z,13.68
2019-01-15T06:25:19.753Z,21.50
2019-01-15T06:25:55.012Z,19.67
2019-01-15T06:26:30.161Z,11.10
2019-01-15T06:27:05.493Z,11.05
2019-01-15T06:27:41.253Z,15.53
2019-01-15T06:28:16.514Z,18.67
2019-01-15T06:28:51.700Z,18.82
2019-01-15T06:29:27.116Z,18.10
2019-01-15T06:30:02.400Z,17.95
2019-01-15T06:30:37.691Z,13.98
2019-01-15T06:31:13.874Z,12.88
2019-01-15T06:31:49.170Z,18.77
2019-01-15T06:32:24.420Z,14.28
2019-01-15T06:32:59.683Z,16.45
2019-01-15T06:33:34.903Z,19.67
2019-01-15T06:34:10.062Z,18.25
2019-01-15T06:34:45.252Z,16.97
2019-01-15T06:35:20.550Z,21.20
2019-01-15T06:35:55.740Z,17.92
2019-01-15T06:36:31.351Z,16.17
2019-01-15T06:37:06.678Z,20.65
2019-01-15T06:37:41.756Z,26.48
2019-01-15T06:38:16.941Z,18.77
2019-01-15T06:38:52.492Z,20.70
2019-01-15T06:39:27.991Z,21.30
2019-01-15T06:40:03.622Z,25.48
2019-01-15T06:40:39.073Z,21.48
2019-01-15T06:41:14.505Z,13.72
2019-01-15T06:41:50.237Z,24.45
2019-01-15T06:42:25.739Z,20.37
2019-01-15T06:43:01.418Z,19.00
2019-01-15T06:43:36.845Z,22.15
2019-01-15T06:44:12.439Z,19.87
2019-01-15T06:44:48.069Z,18.70
2019-01-15T06:45:24.535Z,21.75
2019-01-15T06:45:59.995Z,16.60
2019-01-15T06:46:35.375Z,24.70
2019-01-15T06:47:10.835Z,19.82
2019-01-15T06:47:46.364Z,19.05
2019-01-15T06:48:22.212Z,18.87
2019-01-15T06:48:57.775Z,22.15
2019-01-15T06:49:33.494Z,25.60
2019-01-15T06:50:09.135Z,24.30
2019-01-15T06:50:44.429Z,23.07
2019-01-15T06:51:19.892Z,26.00
2019-01-15T06:51:55.515Z,27.15
2019-01-15T06:52:30.971Z,29.02
2019-01-15T06:53:06.590Z,29.42
2019-01-15T06:53:42.158Z,20.70
2019-01-15T06:54:17.634Z,21.93
2019-01-15T06:54:53.619Z,21.68
2019-01-15T06:55:29.232Z,25.15
2019-01-15T06:56:04.954Z,24.82
2019-01-15T06:56:40.495Z,24.32
2019-01-15T06:57:15.940Z,25.45
2019-01-15T06:57:51.654Z,31.00
2019-01-15T06:58:27.084Z,27.60
2019-01-15T06:59:02.704Z,26.42
2019-01-15T06:59:38.176Z,28.87
2019-01-15T07:00:19.242Z,31.55
2019-01-15T07:00:54.643Z,24.20
2019-01-15T07:01:30.107Z,29.00
2019-01-15T07:02:05.760Z,26.55
2019-01-15T07:02:41.556Z,27.85
2019-01-15T07:03:17.007Z,31.07
2019-01-15T07:03:53.009Z,27.05
2019-01-15T07:04:28.595Z,32.25
2019-01-15T07:05:04.114Z,25.68
2019-01-15T07:05:39.547Z,34.92
2019-01-15T07:06:15.007Z,29.15
2019-01-15T07:06:50.612Z,34.58
2019-01-15T07:07:26.028Z,36.50
2019-01-15T07:08:01.850Z,24.45
2019-01-15T07:08:37.307Z,28.00
2019-01-15T07:09:13.138Z,32.80
2019-01-15T07:09:48.594Z,29.48
2019-01-15T07:10:30.339Z,32.98
2019-01-15T07:11:06.198Z,38.75
2019-01-15T07:11:41.626Z,29.20
2019-01-15T07:12:17.296Z,32.73
2019-01-15T07:12:52.925Z,29.90
2019-01-15T07:13:28.437Z,34.20
2019-01-15T07:14:03.913Z,38.67
2019-01-15T07:14:39.746Z,35.03
2019-01-15T07:15:15.624Z,34.45
2019-01-15T07:15:52.853Z,18.92
2019-01-15T07:16:28.734Z,31.75
2019-01-15T07:17:04.207Z,32.60
2019-01-15T07:17:39.607Z,33.67
2019-01-15T07:18:15.105Z,29.48
2019-01-15T07:18:50.672Z,28.30
2019-01-15T07:19:26.259Z,35.45
2019-01-15T07:20:02.107Z,34.33
2019-01-15T07:20:37.688Z,40.50
2019-01-15T07:21:13.228Z,34.75
2019-01-15T07:21:48.896Z,34.98
2019-01-15T07:22:24.496Z,33.33
2019-01-15T07:23:00.046Z,34.63
2019-01-15T07:23:35.481Z,31.68
2019-01-15T07:24:11.122Z,36.75
2019-01-15T07:24:46.901Z,29.32
2019-01-15T07:25:23.525Z,29.85
2019-01-15T07:25:59.146Z,34.35
2019-01-15T07:26:35.090Z,39.38
2019-01-15T07:27:10.640Z,21.68
2019-01-15T07:27:46.258Z,28.27
2019-01-15T07:28:21.982Z,28.95
2019-01-15T07:28:57.425Z,30.48
2019-01-15T07:29:32.846Z,27.93
2019-01-15T07:30:12.415Z,28.62
2019-01-15T07:30:50.640Z,33.30
2019-01-15T07:31:26.182Z,26.70
2019-01-15T07:32:01.833Z,27.52
2019-01-15T07:32:37.164Z,30.35
2019-01-15T07:33:12.567Z,21.05
2019-01-15T07:33:48.009Z,26.95
2019-01-15T07:34:23.429Z,20.70
2019-01-15T07:34:59.303Z,24.90
2019-01-15T07:35:34.982Z,34.73
2019-01-15T07:36:10.757Z,26.17
2019-01-15T07:36:46.118Z,26.25
2019-01-15T07:37:21.840Z,39.50
2019-01-15T07:37:57.433Z,25.05
2019-01-15T07:38:32.780Z,25.40
2019-01-15T07:39:10.052Z,31.48
2019-01-15T07:39:45.465Z,19.25
2019-01-15T07:40:21.442Z,29.75
2019-01-15T07:40:57.114Z,30.45
2019-01-15T07:41:32.657Z,34.83
2019-01-15T07:42:08.140Z,27.85
2019-01-15T07:42:43.662Z,33.85
2019-01-15T07:43:19.247Z,31.45
2019-01-15T07:43:54.801Z,30.50
2019-01-15T07:44:30.466Z,32.60
2019-01-15T07:45:06.991Z,25.75
2019-01-15T07:45:42.577Z,28.70